Time;durP1;ratioP1;P1;durP2;ratioP2;P2;SDS_P1;SDS_P2;PMS_P1;PMS_P2;Temp;Humidity;BMP_temperature;BMP_pressure;BME280_temperature;BME280_humidity;BME280_pressure;Samples;Min_cycle;Max_cycle;Signal;HPM_P1;HPM_P2
2022/02/19 00:01:06;;;;;;;7.90;2.15;;;;;;;8.85;48.78;98437.97;1671053;85;21058;-71
2022/02/19 00:03:33;;;;;;;8.75;2.33;;;;;;;8.86;48.68;98447.08;1671326;85;21104;-72
2022/02/19 00:05:59;;;;;;;9.48;2.12;;;;;;;8.88;48.75;98480.08;1671200;85;21066;-71
2022/02/19 00:08:25;;;;;;;6.12;2.27;;;;;;;8.83;48.65;98450.12;1671400;85;21093;-72
2022/02/19 00:10:51;;;;;;;6.03;1.80;;;;;;;8.78;48.77;98474.36;1671338;85;21011;-71
2022/02/19 00:13:17;;;;;;;7.12;2.17;;;;;;;8.74;48.76;98485.91;1671497;85;21101;-71
2022/02/19 00:15:43;;;;;;;5.70;2.10;;;;;;;8.65;48.83;98458.44;1671491;85;21158;-71
2022/02/19 00:18:11;;;;;;;8.38;2.30;;;;;;;8.64;48.75;98477.54;1683008;82;21507;-71
2022/02/19 00:20:37;;;;;;;6.35;2.40;;;;;;;8.61;48.64;98489.09;1683716;84;21061;-71
2022/02/19 00:23:03;;;;;;;9.68;2.90;;;;;;;8.55;48.64;98485.92;1699336;84;21063;-71
2022/02/19 00:25:29;;;;;;;4.58;1.42;;;;;;;8.46;48.84;98495.41;1699585;84;21014;-71
2022/02/19 00:27:55;;;;;;;7.62;2.33;;;;;;;8.46;48.54;98494.09;1699302;84;21791;-71
2022/02/19 00:30:21;;;;;;;6.95;2.05;;;;;;;8.49;48.48;98507.46;1671194;85;21059;-71
2022/02/19 00:32:48;;;;;;;7.15;3.12;;;;;;;8.48;48.50;98505.31;1671263;85;21062;-71
2022/02/19 00:35:15;;;;;;;7.92;2.52;;;;;;;8.45;48.56;98514.20;1671265;85;21095;-71
2022/02/19 00:37:41;;;;;;;7.17;2.00;;;;;;;8.42;48.64;98519.41;1671576;85;21624;-71
2022/02/19 00:40:08;;;;;;;7.40;2.10;;;;;;;8.39;48.69;98533.09;1670909;84;21865;-71
2022/02/19 00:42:34;;;;;;;5.00;1.12;;;;;;;8.40;48.84;98540.05;1671185;85;21531;-71
2022/02/19 00:45:00;;;;;;;6.62;1.90;;;;;;;8.37;48.88;98551.05;1671150;85;21055;-71
2022/02/19 00:47:26;;;;;;;5.45;1.57;;;;;;;8.37;48.99;98551.05;1668124;85;21118;-71
2022/02/19 00:49:52;;;;;;;8.85;1.40;;;;;;;8.35;49.11;98553.11;1665464;85;21633;-71
2022/02/19 00:52:18;;;;;;;6.33;1.50;;;;;;;8.35;49.11;98547.80;1676053;85;21204;-72
2022/02/19 00:54:44;;;;;;;7.37;1.52;;;;;;;8.37;49.02;98527.16;1676493;85;21077;-71
2022/02/19 00:57:10;;;;;;;4.22;1.67;;;;;;;8.38;48.65;98573.95;1662128;86;20951;-71
2022/02/19 00:59:36;;;;;;;6.35;1.67;;;;;;;8.32;48.46;98592.02;1662461;86;21062;-71
2022/02/19 02:52:01;;;;;;;6.22;1.77;;;;;;;7.21;49.39;98687.67;1787966;80;22808;-71
2022/02/19 02:54:27;;;;;;;32.25;10.93;;;;;;;7.14;49.22;98689.94;1758585;81;20946;-71
2022/02/19 02:56:53;;;;;;;9.50;2.47;;;;;;;7.11;49.13;98724.78;1761515;81;21176;-71
2022/02/19 02:59:19;;;;;;;5.55;1.20;;;;;;;7.05;49.00;98714.41;1761886;81;20906;-71
2022/02/19 03:01:45;;;;;;;7.60;1.98;;;;;;;7.00;48.76;98707.02;1769777;81;20972;-71
2022/02/19 03:04:11;;;;;;;9.35;2.30;;;;;;;6.93;48.52;98682.81;1769625;81;20913;-72
2022/02/19 03:06:37;;;;;;;16.20;4.95;;;;;;;6.91;48.35;98704.19;1769928;81;20930;-71
2022/02/19 03:09:03;;;;;;;9.98;1.92;;;;;;;6.82;48.27;98684.63;1769731;81;21122;-72
2022/02/19 03:11:29;;;;;;;11.53;1.90;;;;;;;6.79;48.09;98712.83;1769958;81;20945;-72
2022/02/19 03:13:55;;;;;;;10.98;1.98;;;;;;;6.78;47.83;98712.00;1769864;81;20977;-71
2022/02/19 03:16:21;;;;;;;6.37;1.70;;;;;;;6.79;47.56;98715.47;1770043;81;21057;-72
2022/02/19 03:18:47;;;;;;;7.87;2.12;;;;;;;6.73;47.49;98697.66;1769913;81;20847;-72
2022/02/19 03:21:13;;;;;;;8.10;1.40;;;;;;;6.71;47.25;98720.87;1769645;81;21165;-72
2022/02/19 03:23:39;;;;;;;10.53;1.92;;;;;;;6.71;47.04;98728.82;1769862;81;20973;-72
2022/02/19 03:26:07;;;;;;;9.30;2.42;;;;;;;6.66;46.99;98725.89;1769503;81;21027;-72
2022/02/19 03:28:34;;;;;;;8.95;2.08;;;;;;;6.60;46.81;98728.80;1769703;81;21541;-72
2022/02/19 03:31:00;;;;;;;9.98;1.98;;;;;;;6.61;46.53;98709.76;1770007;81;20998;-71
2022/02/19 03:33:26;;;;;;;7.85;1.55;;;;;;;6.57;46.34;98721.72;1769989;81;21131;-71
2022/02/19 03:35:54;;;;;;;12.75;2.17;;;;;;;6.55;46.21;98724.55;1769691;81;21025;-72
2022/02/19 03:38:21;;;;;;;8.75;2.45;;;;;;;6.58;45.88;98726.81;1769817;79;21073;-71
2022/02/19 03:40:47;;;;;;;11.15;2.50;;;;;;;6.58;45.69;98726.02;1769622;81;21458;-71
2022/02/19 03:43:13;;;;;;;7.47;1.60;;;;;;;6.57;45.55;98719.08;1769860;81;21663;-71
2022/02/19 03:45:43;;;;;;;11.30;2.08;;;;;;;6.53;45.43;98723.42;1769876;81;21219;-72
2022/02/19 03:48:07;;;;;;;10.40;1.55;;;;;;;6.50;45.44;98719.83;1769732;81;20990;-71
2022/02/19 03:50:33;;;;;;;7.35;1.95;;;;;;;6.45;45.51;98722.19;1769544;81;21008;-71
2022/02/19 03:52:59;;;;;;;6.70;1.42;;;;;;;6.39;45.55;98731.38;1752626;81;21507;-71
2022/02/19 03:55:26;;;;;;;13.60;2.12;;;;;;;6.38;45.57;98725.76;1753143;81;21062;-71
2022/02/19 03:57:52;;;;;;;7.42;1.62;;;;;;;6.35;45.60;98733.58;1752770;81;21179;-71
2022/02/19 04:00:18;;;;;;;20.57;2.22;;;;;;;6.32;45.64;98723.36;1753140;81;20978;-71
2022/02/19 04:02:44;;;;;;;8.38;1.57;;;;;;;6.31;45.67;98730.14;1753202;81;21053;-71
2022/02/19 04:05:11;;;;;;;10.20;1.70;;;;;;;6.27;45.71;98725.72;1752959;81;21030;-71
2022/02/19 04:07:37;;;;;;;14.47;2.95;;;;;;;6.27;45.67;98729.69;1753280;81;21097;-71
2022/02/19 04:10:05;;;;;;;10.40;1.85;;;;;;;6.32;45.67;98719.39;1753020;81;21057;-71
2022/02/19 04:12:31;;;;;;;6.97;1.80;;;;;;;6.29;45.66;98718.94;1753238;81;21050;-71
2022/02/19 04:14:57;;;;;;;7.85;1.87;;;;;;;6.30;45.61;98735.94;1753550;81;20918;-71
2022/02/19 04:17:23;;;;;;;7.15;1.87;;;;;;;6.32;45.44;98743.70;1753166;81;21827;-72
2022/02/19 04:19:50;;;;;;;5.30;2.08;;;;;;;6.31;45.46;98729.64;1753168;80;21546;-71
2022/02/19 04:22:20;;;;;;;7.75;1.60;;;;;;;6.39;45.32;98736.17;1753155;81;21142;-71
2022/02/19 04:24:46;;;;;;;7.20;1.35;;;;;;;6.39;45.27;98722.94;1753081;81;20940;-72
2022/02/19 04:27:13;;;;;;;8.63;1.90;;;;;;;6.43;45.24;98757.31;1752864;81;21022;-71
2022/02/19 04:29:39;;;;;;;8.50;1.67;;;;;;;6.40;45.28;98743.09;1753459;80;21566;-71
2022/02/19 04:32:07;;;;;;;7.33;1.87;;;;;;;6.38;45.37;98737.67;1752919;81;21545;-71
2022/02/19 04:34:33;;;;;;;3.87;1.05;;;;;;;6.35;45.48;98732.25;1753369;81;21038;-71
2022/02/19 04:36:59;;;;;;;5.78;1.30;;;;;;;6.33;45.63;98738.74;1753046;80;20998;-71
2022/02/19 04:39:25;;;;;;;9.45;2.40;;;;;;;6.41;45.57;98746.06;1753176;81;20987;-71
2022/02/19 04:41:51;;;;;;;6.85;1.20;;;;;;;6.45;45.60;98753.97;1751860;81;21486;-71
2022/02/19 04:44:17;;;;;;;10.00;1.72;;;;;;;6.44;45.73;98752.31;1752811;81;21029;-72
2022/02/19 04:46:43;;;;;;;6.55;1.25;;;;;;;6.42;45.86;98752.19;1753591;81;22086;-71
2022/02/19 04:49:09;;;;;;;8.88;2.17;;;;;;;6.38;45.93;98763.65;1735799;82;20980;-71
2022/02/19 04:51:36;;;;;;;7.50;1.40;;;;;;;6.40;45.99;98758.19;1752758;81;21022;-71
2022/02/19 04:54:02;;;;;;;8.73;1.87;;;;;;;6.34;46.08;98765.02;1753030;81;21078;-71
2022/02/19 04:56:28;;;;;;;7.47;1.47;;;;;;;6.28;46.22;98753.84;1753139;80;21140;-71
2022/02/19 04:58:54;;;;;;;6.08;1.87;;;;;;;6.28;46.31;98788.25;1753203;81;21085;-71
2022/02/19 05:01:20;;;;;;;7.37;1.57;;;;;;;6.27;46.42;98766.75;1753044;81;20881;-71
2022/02/19 05:03:46;;;;;;;5.25;1.00;;;;;;;6.26;46.50;98791.56;1753300;81;20971;-71
2022/02/19 05:06:13;;;;;;;8.68;1.30;;;;;;;6.26;46.59;98766.42;1752759;81;21530;-71
2022/02/19 05:08:41;;;;;;;8.38;1.05;;;;;;;6.29;46.61;98758.64;1735848;82;21388;-72
2022/02/19 05:11:07;;;;;;;5.30;0.90;;;;;;;6.33;46.65;98799.10;1753083;81;21006;-71
2022/02/19 05:13:33;;;;;;;4.67;1.10;;;;;;;6.30;46.74;98787.55;1753262;81;21586;-71
2022/02/19 05:15:59;;;;;;;7.05;0.80;;;;;;;6.30;46.84;98770.84;1753140;81;21612;-71
2022/02/19 05:18:25;;;;;;;11.93;1.50;;;;;;;6.32;46.88;98797.48;1753092;81;21002;-71
2022/02/19 05:20:52;;;;;;;12.63;1.50;;;;;;;6.31;46.98;98813.53;1753210;81;21053;-71
2022/02/19 05:23:21;;;;;;;7.87;2.42;;;;;;;6.24;47.13;98813.44;1752692;81;21124;-71
2022/02/19 05:25:47;;;;;;;2.70;0.88;;;;;;;6.21;47.33;98782.54;1735961;82;20947;-71
2022/02/19 05:28:14;;;;;;;4.67;1.57;;;;;;;6.24;47.35;98816.58;1752888;81;21046;-71
2022/02/19 05:30:40;;;;;;;8.50;1.50;;;;;;;6.26;47.34;98835.77;1752932;81;21018;-71
2022/02/19 05:33:06;;;;;;;5.42;1.42;;;;;;;6.28;47.28;98808.11;1736034;82;21033;-72
2022/02/19 05:35:32;;;;;;;8.25;1.40;;;;;;;6.27;47.27;98809.10;1753097;81;21160;-71
2022/02/19 05:37:58;;;;;;;5.83;1.32;;;;;;;6.25;47.36;98836.27;1752947;81;21448;-71
2022/02/19 05:40:24;;;;;;;3.22;1.20;;;;;;;6.22;47.48;98843.25;1735807;82;21110;-71
2022/02/19 05:42:50;;;;;;;3.00;1.07;;;;;;;6.20;47.55;98843.09;1753318;81;21668;-71
2022/02/19 05:45:16;;;;;;;5.35;1.17;;;;;;;6.22;47.56;98840.61;1753082;81;20994;-71
2022/02/19 05:47:42;;;;;;;8.15;1.40;;;;;;;6.19;47.60;98833.03;1753167;81;21138;-71
2022/02/19 05:50:09;;;;;;;7.60;1.90;;;;;;;6.20;47.60;98855.00;1735943;82;21028;-71
2022/02/19 05:52:35;;;;;;;5.67;1.15;;;;;;;6.19;47.65;98821.61;1752653;81;20990;-71
2022/02/19 05:55:01;;;;;;;11.63;1.47;;;;;;;6.15;47.72;98868.80;1736051;82;20884;-71
2022/02/19 05:57:27;;;;;;;5.42;1.70;;;;;;;6.11;47.80;98880.73;1753179;81;21046;-71
2022/02/19 05:59:53;;;;;;;5.90;1.17;;;;;;;6.10;47.91;98861.05;1753339;81;21094;-72
2022/02/19 06:02:19;;;;;;;5.33;1.00;;;;;;;6.06;47.92;98867.20;1753063;81;21391;-72
2022/02/19 06:04:45;;;;;;;4.95;1.15;;;;;;;6.13;47.68;98868.13;1735775;82;21056;-72
2022/02/19 06:07:11;;;;;;;5.25;1.37;;;;;;;6.13;47.68;98881.86;1707992;82;21016;-71
2022/02/19 06:09:37;;;;;;;8.35;1.52;;;;;;;6.07;47.74;98882.58;1766073;80;21533;-72
2022/02/19 06:12:04;;;;;;;10.20;1.60;;;;;;;6.06;47.72;98860.59;1753148;81;21490;-71
2022/02/19 06:14:30;;;;;;;7.92;1.32;;;;;;;6.06;47.77;98879.11;1752677;81;21057;-71
2022/02/19 06:16:57;;;;;;;6.78;1.55;;;;;;;6.05;47.75;98891.21;1753247;81;20966;-71
2022/02/19 06:19:23;;;;;;;4.97;1.85;;;;;;;6.03;47.76;98876.83;1753028;81;21009;-71
2022/02/19 06:21:49;;;;;;;6.37;2.17;;;;;;;5.99;47.88;98879.50;1753056;80;20994;-71
2022/02/19 06:24:15;;;;;;;5.83;1.50;;;;;;;5.95;47.97;98900.20;1753129;81;21467;-71
2022/02/19 06:26:41;;;;;;;3.87;1.30;;;;;;;5.94;47.98;98890.64;1753130;81;21497;-71
2022/02/19 06:29:07;;;;;;;7.87;1.27;;;;;;;5.94;48.02;98899.89;1772355;80;21470;-71
2022/02/19 06:31:33;;;;;;;11.57;1.32;;;;;;;5.91;48.11;98908.69;1767738;80;21482;-71
2022/02/19 06:33:59;;;;;;;12.55;1.40;;;;;;;5.88;48.21;98931.50;1764721;80;21005;-71
2022/02/19 06:36:25;;;;;;;4.00;1.10;;;;;;;5.86;48.32;98920.28;1776600;80;21070;-71
2022/02/19 06:38:51;;;;;;;6.80;1.17;;;;;;;5.82;48.43;98933.50;1776373;80;20996;-71
2022/02/19 06:41:17;;;;;;;2.25;1.00;;;;;;;5.80;48.51;98923.11;1768812;80;21064;-71
2022/02/19 06:43:44;;;;;;;3.37;0.85;;;;;;;5.81;48.54;98923.91;1740942;81;21286;-71
2022/02/19 06:46:10;;;;;;;6.30;1.30;;;;;;;5.79;48.60;98922.78;1772948;79;21511;-71
2022/02/19 06:48:36;;;;;;;8.35;1.55;;;;;;;5.81;48.59;98926.06;1735597;82;21149;-71
2022/02/19 06:51:02;;;;;;;11.03;1.32;;;;;;;5.83;48.61;98957.14;1753883;81;21060;-72
2022/02/19 06:53:28;;;;;;;6.62;1.77;;;;;;;5.83;48.61;98951.03;1769053;81;20996;-71
2022/02/19 06:55:54;;;;;;;7.22;1.20;;;;;;;5.82;48.66;98973.18;1769409;80;21044;-71
2022/02/19 06:58:20;;;;;;;6.10;1.52;;;;;;;5.80;48.74;98968.58;1769271;81;21037;-71
2022/02/19 07:00:47;;;;;;;4.35;1.30;;;;;;;5.81;48.85;98995.33;1769080;81;21484;-71
2022/02/19 07:03:13;;;;;;;11.97;2.37;;;;;;;5.81;48.94;98984.75;1768854;79;21026;-71
2022/02/19 07:05:39;;;;;;;4.12;1.52;;;;;;;5.81;49.01;99003.27;1769347;80;21052;-71
2022/02/19 07:08:05;;;;;;;7.42;1.98;;;;;;;5.79;49.11;98981.47;1769469;81;21068;-71
2022/02/19 07:10:31;;;;;;;7.15;2.92;;;;;;;5.81;49.14;99024.43;1769366;81;21032;-71
2022/02/19 07:12:57;;;;;;;5.87;1.70;;;;;;;5.83;49.17;99033.03;1769629;81;21189;-71
2022/02/19 07:15:23;;;;;;;7.62;2.02;;;;;;;5.86;49.25;99024.28;1768762;81;20891;-71
2022/02/19 07:17:52;;;;;;;9.40;1.80;;;;;;;5.89;49.29;99016.48;1769066;81;21104;-71
2022/02/19 07:20:24;;;;;;;8.35;1.37;;;;;;;5.90;49.34;99028.73;1768970;81;21530;-71
2022/02/19 07:22:50;;;;;;;5.40;2.10;;;;;;;5.92;49.34;99032.02;1767568;81;21517;-72
2022/02/19 07:25:16;;;;;;;5.90;1.20;;;;;;;5.94;49.38;99052.52;1769627;81;21150;-70
2022/02/19 07:27:45;;;;;;;4.22;1.40;;;;;;;5.98;49.46;99049.86;1769388;81;21029;-71
2022/02/19 07:30:14;;;;;;;6.00;1.27;;;;;;;6.01;49.55;99061.41;1769644;81;21107;-71
2022/02/19 07:32:40;;;;;;;2.47;0.90;;;;;;;6.00;49.46;99063.73;1769399;81;21024;-71
2022/02/19 07:35:08;;;;;;;5.08;1.75;;;;;;;5.98;49.49;99062.56;1768938;81;21126;-71
2022/02/19 07:37:37;;;;;;;5.80;1.22;;;;;;;6.08;49.54;99047.81;1769275;81;21169;-71
2022/02/19 07:40:05;;;;;;;6.25;2.00;;;;;;;6.16;49.55;99066.27;1769463;81;21435;-71
2022/02/19 07:42:31;;;;;;;5.75;1.82;;;;;;;6.28;49.50;99083.42;1769508;81;20985;-71
2022/02/19 07:44:57;;;;;;;6.03;1.72;;;;;;;6.32;49.40;99095.31;1770633;79;20988;-71
2022/02/19 07:47:25;;;;;;;9.23;2.30;;;;;;;6.35;49.32;99108.20;1766510;79;21063;-71
2022/02/19 07:58:19;;;;;;;9.65;2.42;;;;;;;6.33;49.17;99132.68;1751466;81;21483;-71
2022/02/19 08:00:58;;;;;;;11.10;2.10;;;;;;;6.51;49.08;99139.03;1751588;81;21086;-71
2022/02/19 08:03:26;;;;;;;6.62;2.30;;;;;;;6.63;48.80;99161.98;1751583;81;21499;-71
2022/02/19 08:05:53;;;;;;;11.68;3.65;;;;;;;6.77;48.62;99145.33;1732482;80;21545;-72
2022/02/19 08:08:19;;;;;;;8.85;3.15;;;;;;;6.71;48.43;99127.50;1760298;80;21044;-71
2022/02/19 08:10:48;;;;;;;11.78;4.62;;;;;;;6.67;48.36;99166.77;1755316;80;20993;-71
2022/02/19 08:13:16;;;;;;;16.20;4.63;;;;;;;6.62;48.41;99189.45;1760931;80;21029;-71
2022/02/19 08:15:42;;;;;;;8.68;3.00;;;;;;;6.56;48.57;99183.55;1773502;79;21121;-71
2022/02/19 08:18:10;;;;;;;8.75;2.35;;;;;;;6.46;48.54;99187.24;1765828;80;21072;-71
2022/02/19 08:20:38;;;;;;;9.95;3.20;;;;;;;6.39;48.67;99199.52;1742330;81;21515;-71
2022/02/19 08:23:04;;;;;;;8.60;2.75;;;;;;;6.34;48.72;99212.44;1747517;81;21032;-71
2022/02/19 08:25:31;;;;;;;10.15;2.30;;;;;;;6.32;48.81;99214.45;1749063;81;21069;-71
2022/02/19 08:27:57;;;;;;;8.83;2.90;;;;;;;6.31;48.86;99223.37;1753264;81;21687;-71
2022/02/19 08:30:23;;;;;;;14.47;3.08;;;;;;;6.30;48.96;99227.02;1753332;81;21690;-71
2022/02/19 08:32:49;;;;;;;8.65;2.65;;;;;;;6.32;49.08;99236.95;1753050;81;20982;-71
2022/02/19 08:35:15;;;;;;;13.50;3.20;;;;;;;6.35;49.23;99239.25;1757768;80;21020;-71
2022/02/19 08:37:41;;;;;;;7.95;3.00;;;;;;;6.43;49.30;99267.03;1766574;80;21001;-71
2022/02/19 08:40:11;;;;;;;12.18;3.17;;;;;;;6.47;49.31;99259.05;1752972;81;21075;-71
2022/02/19 08:42:38;;;;;;;12.65;3.62;;;;;;;6.49;49.35;99263.70;1746572;81;21052;-71
2022/02/19 08:45:05;;;;;;;16.27;4.62;;;;;;;6.47;49.36;99244.48;1737076;81;21007;-71
2022/02/19 08:47:33;;;;;;;9.20;2.35;;;;;;;6.50;49.41;99265.36;1753204;81;21533;-72
2022/02/19 08:50:03;;;;;;;11.38;2.77;;;;;;;6.51;49.52;99266.98;1752208;81;21006;-71
2022/02/19 08:52:29;;;;;;;6.78;2.30;;;;;;;6.54;49.51;99281.20;1751649;81;21061;-71
2022/02/19 08:54:55;;;;;;;8.78;2.22;;;;;;;6.57;49.58;99289.33;1734941;82;21064;-71
2022/02/19 08:57:22;;;;;;;7.05;2.77;;;;;;;6.62;49.66;99291.44;1735272;81;21052;-71
2022/02/19 08:59:48;;;;;;;12.82;2.40;;;;;;;6.63;49.70;99314.29;1735166;82;20894;-72
2022/02/19 09:02:14;;;;;;;15.70;4.47;;;;;;;6.63;49.66;99301.05;1735153;82;21005;-71
2022/02/19 09:04:40;;;;;;;16.65;4.83;;;;;;;6.72;49.62;99313.28;1735105;81;21603;-71
2022/02/19 09:07:06;;;;;;;15.70;4.45;;;;;;;6.82;49.68;99309.92;1730187;81;21430;-70
2022/02/19 09:09:36;;;;;;;5.78;1.98;;;;;;;6.86;49.72;99331.11;1734893;82;21069;-70
2022/02/19 09:12:00;;;;;;;8.08;2.30;;;;;;;6.79;49.68;99330.14;1740564;81;21022;-70
2022/02/19 09:14:26;;;;;;;11.75;2.20;;;;;;;6.69;49.65;99318.89;1734788;82;21053;-70
2022/02/19 09:16:52;;;;;;;9.60;2.75;;;;;;;6.67;49.78;99335.47;1734947;82;21173;-70
2022/02/19 09:19:18;;;;;;;8.48;2.45;;;;;;;6.67;49.91;99361.97;1734799;82;21513;-70
2022/02/19 09:21:46;;;;;;;7.95;2.35;;;;;;;6.62;49.98;99337.80;1735054;81;20985;-70
2022/02/19 09:24:12;;;;;;;9.93;3.20;;;;;;;6.58;50.10;99365.64;1735054;82;21002;-70
2022/02/19 09:26:38;;;;;;;7.50;1.90;;;;;;;6.54;50.24;99369.93;1735150;82;20985;-69
2022/02/19 09:29:04;;;;;;;9.75;2.80;;;;;;;6.50;50.36;99359.87;1737601;81;21138;-70
2022/02/19 09:31:30;;;;;;;8.25;2.47;;;;;;;6.45;50.53;99397.44;1762190;81;22181;-70
2022/02/19 09:33:57;;;;;;;10.82;3.50;;;;;;;6.42;50.69;99381.89;1751508;82;20986;-70
2022/02/19 09:36:23;;;;;;;7.40;2.72;;;;;;;6.39;50.86;99399.94;1765400;81;21010;-70
2022/02/19 09:38:49;;;;;;;16.87;4.87;;;;;;;6.38;51.04;99423.43;1765329;81;21010;-70
2022/02/19 09:41:16;;;;;;;19.60;5.67;;;;;;;6.34;51.20;99432.20;1764998;81;21741;-70
2022/02/19 09:43:42;;;;;;;14.38;4.97;;;;;;;6.29;51.35;99439.00;1765267;80;21045;-70
2022/02/19 09:46:08;;;;;;;15.10;5.67;;;;;;;6.24;51.51;99439.49;1765426;80;21450;-70
2022/02/19 09:48:34;;;;;;;24.20;7.67;;;;;;;6.22;51.61;99448.11;1765477;81;21049;-70
2022/02/19 09:51:01;;;;;;;22.32;7.25;;;;;;;6.25;51.73;99456.20;1765486;81;21513;-70
2022/02/19 09:53:28;;;;;;;12.80;3.67;;;;;;;6.25;51.86;99449.09;1766630;81;21106;-70
2022/02/19 09:55:55;;;;;;;25.08;7.55;;;;;;;6.26;51.92;99458.67;1767654;81;20977;-70
2022/02/19 09:58:23;;;;;;;16.62;4.75;;;;;;;6.33;52.00;99469.45;1767632;81;21541;-71
2022/02/19 10:00:49;;;;;;;11.33;3.45;;;;;;;6.34;51.99;99457.36;1768237;81;21474;-70
2022/02/19 10:03:25;;;;;;;18.17;5.17;;;;;;;6.35;52.01;99468.29;1767596;81;20977;-70
2022/02/19 10:05:52;;;;;;;17.50;5.85;;;;;;;6.39;52.07;99482.86;1767490;81;21662;-70
2022/02/19 10:08:18;;;;;;;12.23;4.83;;;;;;;6.44;52.11;99480.52;1767505;79;21020;-70
2022/02/19 10:10:54;;;;;;;11.12;3.20;;;;;;;6.41;52.08;99479.53;1767702;81;21072;-70
2022/02/19 10:13:33;;;;;;;30.48;10.50;;;;;;;6.37;52.07;99498.06;1767718;81;21505;-70
2022/02/19 10:16:04;;;;;;;18.07;5.33;;;;;;;6.40;52.16;99512.81;1767211;81;21072;-69
2022/02/19 10:18:42;;;;;;;15.20;5.90;;;;;;;6.42;52.25;99513.47;1767291;81;21195;-70
2022/02/19 10:21:24;;;;;;;8.10;2.47;;;;;;;6.41;52.29;99526.37;1767397;81;21040;-70
2022/02/19 10:23:56;;;;;;;12.82;4.97;;;;;;;6.42;52.35;99516.95;1767724;81;21937;-70
2022/02/19 10:26:31;;;;;;;8.98;3.25;;;;;;;6.47;52.43;99554.34;1767613;81;21018;-70
2022/02/19 10:29:05;;;;;;;6.15;2.42;;;;;;;6.48;52.32;99545.41;1767012;81;20977;-70
2022/02/19 10:31:32;;;;;;;12.30;4.05;;;;;;;6.51;52.35;99538.45;1767749;81;21152;-70
2022/02/19 10:34:16;;;;;;;8.88;2.45;;;;;;;6.58;52.41;99553.19;1767512;81;20990;-70
2022/02/19 10:36:47;;;;;;;5.37;2.08;;;;;;;6.60;52.42;99561.81;1767798;81;21080;-70
2022/02/19 10:39:13;;;;;;;9.55;3.12;;;;;;;6.55;52.42;99582.66;1767671;81;20994;-70
2022/02/19 10:41:41;;;;;;;8.38;2.85;;;;;;;6.52;52.47;99578.52;1767713;80;21013;-70
2022/02/19 10:44:26;;;;;;;9.10;2.27;;;;;;;6.52;52.58;99572.39;1753299;80;22194;-70
2022/02/19 10:46:59;;;;;;;12.10;1.90;;;;;;;6.51;52.64;99579.51;1738517;82;21173;-70
2022/02/19 10:49:27;;;;;;;6.87;2.35;;;;;;;6.50;52.65;99597.73;1734951;82;21064;-70
2022/02/19 10:51:53;;;;;;;10.80;3.22;;;;;;;6.47;52.63;99583.47;1713982;82;21012;-70
2022/02/19 10:54:22;;;;;;;8.78;3.17;;;;;;;6.48;52.68;99597.06;1738469;82;21528;-70
2022/02/19 10:56:48;;;;;;;4.20;1.80;;;;;;;6.53;52.75;99615.11;1738861;82;21211;-70
2022/02/19 10:59:18;;;;;;;10.55;3.40;;;;;;;6.60;52.78;99599.39;1738654;82;21076;-70
2022/02/19 11:01:47;;;;;;;10.78;4.40;;;;;;;6.62;52.71;99613.29;1738926;82;21067;-70
2022/02/19 11:04:17;;;;;;;14.68;3.27;;;;;;;6.64;52.75;99613.48;1738813;82;20993;-70
2022/02/19 11:06:43;;;;;;;7.22;3.00;;;;;;;6.67;52.81;99620.27;1738938;82;21071;-70
2022/02/19 11:09:11;;;;;;;17.50;3.45;;;;;;;6.65;52.74;99632.86;1738987;82;21303;-70
2022/02/19 11:11:38;;;;;;;10.23;4.40;;;;;;;6.66;52.72;99627.37;1738760;82;21052;-70
2022/02/19 11:14:07;;;;;;;7.35;2.90;;;;;;;6.87;52.79;99628.22;1738916;82;21016;-70
2022/02/19 11:16:34;;;;;;;10.23;2.90;;;;;;;6.94;52.70;99631.38;1738123;82;21020;-70
2022/02/19 11:19:00;;;;;;;7.62;2.90;;;;;;;6.85;52.61;99637.67;1738308;82;21095;-70
2022/02/19 11:21:27;;;;;;;7.35;2.37;;;;;;;6.86;52.66;99644.61;1738844;82;21146;-70
2022/02/19 11:23:54;;;;;;;6.35;1.80;;;;;;;6.84;52.57;99641.80;1738562;82;21276;-70
2022/02/19 11:26:23;;;;;;;6.40;2.47;;;;;;;6.84;52.49;99663.00;1738844;82;21012;-70
2022/02/19 11:28:50;;;;;;;7.77;2.97;;;;;;;6.86;52.51;99660.52;1738817;82;21138;-70
2022/02/19 11:31:17;;;;;;;18.15;5.87;;;;;;;6.85;52.42;99665.50;1739053;82;21421;-71
2022/02/19 11:33:44;;;;;;;9.05;2.55;;;;;;;6.84;52.29;99665.66;1738752;82;21014;-71
2022/02/19 11:36:10;;;;;;;11.83;3.17;;;;;;;6.83;52.18;99662.66;1738749;82;21111;-71
2022/02/19 11:38:49;;;;;;;13.53;4.83;;;;;;;6.87;52.17;99678.57;1744114;81;21481;-71
2022/02/19 11:41:15;;;;;;;13.48;3.52;;;;;;;6.90;52.21;99677.75;1778896;79;21087;-71
2022/02/19 11:43:47;;;;;;;15.83;4.62;;;;;;;6.91;52.15;99691.83;1719041;82;21109;-71
2022/02/19 11:46:19;;;;;;;9.75;4.35;;;;;;;6.88;52.05;99697.47;1762413;81;21213;-70
2022/02/19 11:48:47;;;;;;;24.47;8.50;;;;;;;6.76;51.88;99684.18;1765451;81;21430;-71
2022/02/19 11:51:26;;;;;;;11.33;3.98;;;;;;;6.71;51.86;99701.08;1765557;81;21480;-71
2022/02/19 11:54:10;;;;;;;14.05;3.92;;;;;;;6.63;51.74;99689.13;1768061;80;21030;-71
2022/02/19 11:56:38;;;;;;;11.53;3.60;;;;;;;6.59;51.60;99706.33;1760970;80;21430;-71
2022/02/19 11:59:06;;;;;;;13.18;3.70;;;;;;;6.58;51.57;99712.13;1752882;81;21222;-71
2022/02/19 12:01:32;;;;;;;10.32;2.67;;;;;;;6.61;51.65;99708.34;1753126;81;21492;-71
2022/02/19 12:04:19;;;;;;;12.65;2.95;;;;;;;6.66;51.49;99712.64;1752740;81;21012;-71
2022/02/19 12:06:49;;;;;;;135.72;51.80;;;;;;;6.67;51.40;99727.56;1752983;81;21560;-71
2022/02/19 12:09:18;;;;;;;152.00;60.90;;;;;;;6.64;51.30;99734.51;1773990;79;21014;-71
2022/02/19 12:12:07;;;;;;;52.05;22.30;;;;;;;6.63;51.34;99732.35;1753194;81;21715;-71
2022/02/19 12:14:53;;;;;;;14.70;6.42;;;;;;;6.62;51.35;99737.80;1751841;81;21537;-71
2022/02/19 12:17:23;;;;;;;12.80;3.50;;;;;;;6.58;51.32;99738.61;1753008;81;21010;-71
2022/02/19 12:19:59;;;;;;;10.15;3.42;;;;;;;6.57;51.20;99738.79;1752478;81;20997;-71
2022/02/19 12:22:36;;;;;;;9.50;2.58;;;;;;;6.58;51.09;99745.76;1752971;81;21424;-71
2022/02/19 12:25:06;;;;;;;8.08;2.47;;;;;;;6.58;50.87;99739.13;1752557;81;21203;-71
2022/02/19 12:27:33;;;;;;;10.60;2.25;;;;;;;6.58;50.71;99747.89;1751805;81;21410;-71
2022/02/19 12:30:28;;;;;;;15.10;3.15;;;;;;;6.57;50.62;99758.17;1752965;80;21060;-71
2022/02/19 12:33:01;;;;;;;11.85;3.75;;;;;;;6.57;50.63;99764.79;1752669;81;21054;-71
2022/02/19 12:35:42;;;;;;;9.10;3.60;;;;;;;6.57;50.56;99762.63;1723048;82;21466;-71
2022/02/19 12:38:13;;;;;;;8.15;2.40;;;;;;;6.58;50.41;99785.49;1722709;82;21086;-71
2022/02/19 12:40:40;;;;;;;13.43;3.98;;;;;;;6.57;50.37;99797.91;1722524;83;21587;-71
2022/02/19 12:43:15;;;;;;;19.48;3.70;;;;;;;6.57;50.45;99783.83;1722847;83;20985;-71
2022/02/19 12:45:41;;;;;;;14.93;3.65;;;;;;;6.55;50.39;99801.19;1761149;80;21057;-71
2022/02/19 12:48:07;;;;;;;13.00;5.08;;;;;;;6.58;50.45;99804.04;1753443;80;20990;-71
2022/02/19 12:50:33;;;;;;;20.05;9.50;;;;;;;6.61;50.51;99798.41;1765943;80;21119;-71
2022/02/19 12:52:59;;;;;;;26.52;11.33;;;;;;;6.61;50.51;99810.34;1731226;81;21069;-71
2022/02/19 12:55:25;;;;;;;28.17;8.83;;;;;;;6.60;50.41;99813.97;1738771;81;21003;-71
2022/02/19 12:57:52;;;;;;;20.20;8.18;;;;;;;6.62;50.44;99797.41;1770536;80;21079;-71
2022/02/19 13:00:22;;;;;;;13.55;4.10;;;;;;;6.60;50.40;99819.27;1747632;80;21539;-71
2022/02/19 13:03:00;;;;;;;18.60;7.40;;;;;;;6.60;50.39;99827.21;1748387;81;22792;-72
2022/02/19 13:05:26;;;;;;;20.62;5.47;;;;;;;6.58;50.39;99837.15;1769273;79;21024;-72
2022/02/19 13:07:52;;;;;;;12.98;5.60;;;;;;;6.56;50.48;99824.54;1774082;79;21314;-72
2022/02/19 13:10:20;;;;;;;18.77;6.20;;;;;;;6.49;50.55;99827.83;1745465;81;20869;-72
2022/02/19 13:12:46;;;;;;;15.90;4.90;;;;;;;6.45;50.60;99848.98;1735088;82;21431;-72
2022/02/19 13:15:14;;;;;;;18.20;7.25;;;;;;;6.42;50.70;99861.23;1753251;81;21180;-72
2022/02/19 13:17:40;;;;;;;17.02;4.00;;;;;;;6.39;50.79;99864.68;1766964;81;21646;-71
2022/02/19 13:20:17;;;;;;;14.15;4.37;;;;;;;6.34;50.94;99845.28;1734705;82;21612;-71
2022/02/19 13:22:45;;;;;;;17.20;4.40;;;;;;;6.33;51.05;99868.77;1762022;80;21012;-71
2022/02/19 13:25:14;;;;;;;15.15;4.53;;;;;;;6.34;51.14;99902.21;1752935;81;20999;-71
2022/02/19 13:27:41;;;;;;;16.12;4.00;;;;;;;6.34;51.26;99878.37;1752331;81;21831;-71
2022/02/19 13:30:13;;;;;;;11.70;3.85;;;;;;;6.34;51.42;99909.32;1730102;82;21018;-71
2022/02/19 13:32:47;;;;;;;17.60;3.62;;;;;;;6.27;51.67;99906.47;1746423;81;20993;-71
2022/02/19 13:35:32;;;;;;;10.93;2.72;;;;;;;6.19;52.01;99920.98;1735758;81;21501;-71
2022/02/19 13:37:59;;;;;;;10.43;3.15;;;;;;;6.13;52.29;99913.64;1727518;80;21009;-72
2022/02/19 13:40:34;;;;;;;13.22;4.22;;;;;;;6.10;52.54;99927.18;1731884;81;21156;-72